Mc Entire JNGB Airport
KMMT : now visible

Airfield :











YOU CAN JOIN US ON...

 
LOGIN :

Register | Disclaimer

   EN    FR    IT 

 









Legend :    VFR   Marginal VFR   IFR   Intensive IFR   Very Intensive IFR
Visi :
Ceiling :
>= 8 km
>= 3000ft
5 to 8 km
1000 to 3000 ft
1500m to 5 km
500 to 1000 ft
800 to 1500m
200 to 500 ft
< 800m
< 200 ft
Symbols :   Thunderstorms  Fog  Heavy snow  Heavy precipitations  Wind > 20 kt






- Airport Elevation : 254 ft


KMMT - Mc Entire JNGB

CURRENT METAR :
  • 250656Z AUTO 00000KT 10SM BKN160 OVC190 03/02 A2991 RMK AO2 SLP132 T00250016

EXPIRED METARs :
  • 250556Z AUTO 00000KT 10SM OVC190 02/01 A2993 RMK AO2 SLP139 T00190013 10069 20008 55004
  • 250456Z AUTO 00000KT 10SM BKN210 02/00 A2993 RMK AO2 SLP139 T00150002 401451034

TAF AMD TAF KMMT
Valid from the 25 at 05:00 until the 26 at 06:00 UTC


250503Z 2505/2606 VRB06KT 9999 FEW190 QNH2987INS
BECMG 2511/2512 VRB06KT 9999 BKN100 OVC250 QNH2990INS
BECMG 2602/2603 VRB06KT 9999 FEW016 QNH3012INS TX16/2521Z TNM01/2505Z
KZJX FIR / North America



MET'MAP, your aeronautical weather chart ! - Copyright ORBIFLY December 2007 - Disclaimer

ORBIFLY MET'MAP TEAM :

Programming & Development : Alexandra Zaïnal
Original concept : Baudouin d'Aumeries
Technical & hardware support : Manuel Goepfert
Assistance : Marc-Olivier Méhu

Contact : metmap@orbifly.com




SOURCES & CREDITS :

   NOAA       Earth
Advisory